Time;durP1;ratioP1;P1;durP2;ratioP2;P2;SDS_P1;SDS_P2;PMS_P1;PMS_P2;Temp;Humidity;BMP_temperature;BMP_pressure;BME280_temperature;BME280_humidity;BME280_pressure;Samples;Min_cycle;Max_cycle;Signal;HPM_P1;HPM_P2
2021/12/30 08:52:36;;;;;;;;;;;;;;;10.67;91.73;98271.25;5499210;23;20311;-55
2021/12/30 08:55:04;;;;;;;;;;;;;;;10.59;92.79;98270.09;4917075;29;19922;-53
2021/12/30 08:57:29;;;;;;;;;;;;;;;10.72;91.92;98280.59;4930735;29;19914;-54
2021/12/30 08:59:54;;;;;;;;;;;;;;;10.68;92.10;98283.44;4935377;29;20267;-49
2021/12/30 09:02:19;;;;;;;;;;;;;;;10.74;92.57;98283.97;4935912;29;19962;-53
2021/12/30 09:04:46;;;;;;;;;;;;;;;10.78;92.37;98290.69;4935720;29;19914;-50
2021/12/30 09:07:11;;;;;;;;;;;;;;;10.84;91.92;98285.00;4935166;29;19915;-49
2021/12/30 09:09:37;;;;;;;;;;;;;;;11.00;92.26;98285.63;4934415;29;19926;-51
2021/12/30 09:12:02;;;;;;;;;;;;;;;10.89;92.80;98283.75;4935689;29;19919;-50
2021/12/30 09:14:27;;;;;;;;;;;;;;;10.88;92.51;98289.13;4935501;29;19914;-54
2021/12/30 09:16:53;;;;;;;;;;;;;;;10.86;92.64;98283.13;4935356;29;19915;-57
2021/12/30 09:19:19;;;;;;;;;;;;;;;10.88;92.64;98286.50;4933570;29;19926;-53
2021/12/30 09:21:44;;;;;;;;;;;;;;;10.97;92.25;98290.25;4934169;29;19918;-53
2021/12/30 09:24:09;;;;;;;;;;;;;;;10.89;92.08;98294.25;4934996;29;19946;-53
2021/12/30 09:26:35;;;;;;;;;;;;;;;10.91;93.02;98292.38;4934302;29;19922;-54
2021/12/30 09:29:00;;;;;;;;;;;;;;;10.97;92.57;98298.97;4934575;29;19919;-54
2021/12/30 09:31:27;;;;;;;;;;;;;;;11.00;92.45;98296.13;4934973;29;20284;-56
2021/12/30 09:33:53;;;;;;;;;;;;;;;10.96;92.59;98294.66;4935461;29;19911;-50
2021/12/30 09:36:18;;;;;;;;;;;;;;;11.03;92.93;98301.16;4929195;29;20354;-53
2021/12/30 09:38:43;;;;;;;;;;;;;;;10.98;92.68;98297.16;4931904;29;20041;-52
2021/12/30 09:41:08;;;;;;;;;;;;;;;11.09;92.67;98302.53;4933670;29;19926;-52
2021/12/30 09:43:34;;;;;;;;;;;;;;;11.22;91.70;98302.50;4929593;29;19922;-53
2021/12/30 09:45:59;;;;;;;;;;;;;;;11.26;91.81;98310.09;4928184;29;19914;-54
2021/12/30 09:48:25;;;;;;;;;;;;;;;11.23;92.24;98306.84;4938644;29;20482;-55
2021/12/30 09:50:51;;;;;;;;;;;;;;;11.23;92.60;98312.09;4926031;29;20271;-51
2021/12/30 09:53:23;;;;;;;;;;;;;;;11.26;92.04;98311.88;4936780;29;20001;-57
2021/12/30 09:55:51;;;;;;;;;;;;;;;11.32;91.48;98311.44;4936934;29;19953;-54
2021/12/30 09:58:17;;;;;;;;;;;;;;;11.39;91.26;98320.59;4938386;29;19911;-55
2021/12/30 10:00:43;;;;;;;;;;;;;;;11.35;91.54;98317.31;4937551;29;19919;-55
2021/12/30 10:03:08;;;;;;;;;;;;;;;11.42;91.46;98317.72;4935420;29;19918;-54
2021/12/30 10:05:34;;;;;;;;;;;;;;;11.41;91.59;98310.78;4941876;29;19919;-54
2021/12/30 10:08:08;;;;;;;;;;;;;;;11.39;91.61;98310.06;4941689;29;20002;-57
2021/12/30 10:10:35;;;;;;;;;;;;;;;11.53;91.20;98317.81;4944415;29;20306;-52
2021/12/30 10:13:01;;;;;;;;;;;;;;;11.56;91.14;98316.75;4944108;29;19978;-55
2021/12/30 10:15:28;;;;;;;;;;;;;;;11.61;90.52;98312.84;4929439;29;19949;-56
2021/12/30 10:17:54;;;;;;;;;;;;;;;11.72;90.25;98319.97;4932423;29;19950;-56
2021/12/30 10:20:25;;;;;;;;;;;;;;;11.81;90.81;98331.63;4947499;29;20234;-53
2021/12/30 10:22:51;;;;;;;;;;;;;;;11.80;90.53;98335.19;4944041;29;19911;-57
2021/12/30 10:25:28;;;;;;;;;;;;;;;11.82;90.74;98333.28;4944261;29;19949;-55
2021/12/30 10:27:54;;;;;;;;;;;;;;;11.85;90.09;98333.09;4938839;29;19910;-56
2021/12/30 10:30:32;;;;;;;;;;;;;;;11.73;90.95;98336.56;4937301;29;19915;-52
2021/12/30 10:33:10;;;;;;;;;;;;;;;11.78;90.71;98337.94;4922062;29;19915;-53
2021/12/30 10:35:35;;;;;;;;;;;;;;;11.88;90.30;98330.25;4937371;29;19914;-52
2021/12/30 10:38:02;;;;;;;;;;;;;;;11.88;90.10;98335.53;4939100;29;19914;-52
2021/12/30 10:40:28;;;;;;;;;;;;;;;11.92;90.22;98339.59;4943650;29;19914;-55
2021/12/30 10:43:13;;;;;;;;;;;;;;;11.81;90.65;98340.34;4943713;29;19911;-55
2021/12/30 10:45:38;;;;;;;;;;;;;;;11.90;90.65;98343.28;4925831;29;20382;-58
2021/12/30 10:48:04;;;;;;;;;;;;;;;11.97;90.22;98345.34;4936346;29;19911;-55
2021/12/30 10:50:29;;;;;;;;;;;;;;;12.09;89.93;98349.75;4936365;29;19979;-56
2021/12/30 10:52:55;;;;;;;;;;;;;;;12.11;89.86;98350.47;4937466;29;20401;-56
2021/12/30 10:55:20;;;;;;;;;;;;;;;12.24;89.28;98349.56;4935807;29;20380;-56
2021/12/30 10:57:45;;;;;;;;;;;;;;;12.26;89.02;98355.56;4937477;29;20001;-55
2021/12/30 11:00:22;;;;;;;;;;;;;;;12.28;88.59;98354.47;4936677;29;20009;-54
2021/12/30 11:02:48;;;;;;;;;;;;;;;12.15;89.62;98343.22;4937402;29;20363;-56
2021/12/30 11:05:13;;;;;;;;;;;;;;;12.16;89.26;98341.41;4936863;29;20416;-55
2021/12/30 11:07:43;;;;;;;;;;;;;;;12.15;89.28;98347.59;4936046;29;20263;-49
2021/12/30 11:10:08;;;;;;;;;;;;;;;12.14;88.79;98346.75;4937475;29;19914;-55
2021/12/30 11:12:34;;;;;;;;;;;;;;;12.21;88.71;98353.25;4937478;29;19922;-56
2021/12/30 11:15:04;;;;;;;;;;;;;;;12.19;88.57;98349.06;4932799;29;20386;-56
2021/12/30 11:17:34;;;;;;;;;;;;;;;12.31;88.32;98342.91;4938170;29;19911;-55
2021/12/30 11:20:00;;;;;;;;;;;;;;;12.27;89.21;98354.59;4937219;29;19922;-55
2021/12/30 11:22:26;;;;;;;;;;;;;;;12.38;88.28;98349.38;4937552;29;19929;-54
2021/12/30 11:24:52;;;;;;;;;;;;;;;12.32;88.24;98347.25;4937104;29;19922;-55
2021/12/30 11:27:18;;;;;;;;;;;;;;;12.30;88.17;98352.59;4928661;29;19915;-53
2021/12/30 11:29:45;;;;;;;;;;;;;;;12.34;88.32;98348.78;4934773;29;20002;-52
2021/12/30 11:32:11;;;;;;;;;;;;;;;12.44;87.57;98335.78;4939824;29;19914;-49
2021/12/30 11:34:36;;;;;;;;;;;;;;;12.41;87.94;98343.91;4934983;29;19915;-53
2021/12/30 11:37:02;;;;;;;;;;;;;;;12.48;87.74;98350.38;4929521;29;19911;-49
2021/12/30 11:39:27;;;;;;;;;;;;;;;12.36;87.97;98353.94;4938566;29;20294;-53
2021/12/30 11:41:58;;;;;;;;;;;;;;;12.35;88.08;98352.25;4937027;29;20434;-53
2021/12/30 11:44:39;;;;;;;;;;;;;;;12.49;87.45;98345.97;4925566;29;19915;-52
2021/12/30 11:47:05;;;;;;;;;;;;;;;12.47;87.93;98332.94;4937408;29;19922;-54
2021/12/30 11:49:50;;;;;;;;;;;;;;;12.59;86.95;98347.81;4937559;29;19991;-53
2021/12/30 11:52:35;;;;;;;;;;;;;;;12.69;86.48;98336.59;4936312;29;19970;-52
2021/12/30 11:55:00;;;;;;;;;;;;;;;12.71;86.10;98337.31;4926339;29;19918;-52
2021/12/30 11:57:27;;;;;;;;;;;;;;;12.58;86.42;98335.59;4935859;29;19937;-51
2021/12/30 11:59:56;;;;;;;;;;;;;;;12.66;85.95;98336.81;4936972;29;19914;-50
2021/12/30 12:02:30;;;;;;;;;;;;;;;12.61;86.14;98338.97;4937097;29;19914;-53
2021/12/30 12:04:55;;;;;;;;;;;;;;;12.73;85.55;98333.63;4937652;29;19945;-51
2021/12/30 12:07:22;;;;;;;;;;;;;;;12.83;84.95;98329.34;4939341;29;19915;-49
2021/12/30 12:09:47;;;;;;;;;;;;;;;12.67;85.79;98328.00;4936915;29;19915;-49
2021/12/30 12:12:14;;;;;;;;;;;;;;;12.74;85.54;98327.41;4936603;29;20014;-49
2021/12/30 12:14:41;;;;;;;;;;;;;;;12.81;85.47;98341.78;4935308;29;19949;-50
2021/12/30 12:17:07;;;;;;;;;;;;;;;12.78;85.52;98328.84;4935256;29;19910;-50
2021/12/30 12:19:45;;;;;;;;;;;;;;;12.82;85.74;98324.19;4937317;29;19966;-48
2021/12/30 12:22:25;;;;;;;;;;;;;;;12.90;85.07;98329.69;4939659;29;19925;-50
2021/12/30 12:25:09;;;;;;;;;;;;;;;12.72;85.25;98320.56;4936787;29;19985;-47
2021/12/30 12:27:35;;;;;;;;;;;;;;;12.84;85.08;98327.56;4936837;29;19921;-50
2021/12/30 15:04:18;;;;;;;4.30;1.30;;;;;;;12.43;86.15;98392.00;5075577;28;20385;-50
2021/12/30 15:06:44;;;;;;;3.47;1.30;;;;;;;12.41;86.51;98396.50;5089839;28;20387;-52
2021/12/30 15:09:10;;;;;;;7.50;3.22;;;;;;;12.33;86.64;98396.25;5076166;28;20016;-52
2021/12/30 15:11:36;;;;;;;5.00;1.63;;;;;;;12.35;86.87;98394.31;5069423;28;20033;-55
2021/12/30 15:14:01;;;;;;;6.75;2.53;;;;;;;12.39;86.35;98401.06;5039522;28;20499;-51
2021/12/30 15:16:27;;;;;;;12.63;4.75;;;;;;;12.36;86.33;98401.28;5050040;28;20028;-50
2021/12/30 15:18:52;;;;;;;11.45;3.85;;;;;;;12.44;85.84;98409.44;5050773;28;20029;-53
2021/12/30 15:21:17;;;;;;;9.23;3.20;;;;;;;12.43;86.17;98402.53;5051642;28;20180;-51
2021/12/30 15:23:43;;;;;;;13.05;4.07;;;;;;;12.47;85.65;98409.22;5052872;28;20013;-50
2021/12/30 15:26:08;;;;;;;12.00;4.03;;;;;;;12.40;86.33;98410.63;5051484;28;20472;-49
2021/12/30 15:28:34;;;;;;;9.50;3.20;;;;;;;12.38;86.40;98412.50;5054952;28;20550;-50
2021/12/30 15:30:59;;;;;;;9.43;3.10;;;;;;;12.35;86.65;98412.75;5071093;28;20028;-53
2021/12/30 15:33:24;;;;;;;13.60;4.50;;;;;;;12.33;86.35;98412.03;5059143;28;20029;-52
2021/12/30 15:35:51;;;;;;;32.95;12.88;;;;;;;12.38;86.42;98416.94;5050267;28;20037;-52
2021/12/30 15:38:17;;;;;;;30.75;13.18;;;;;;;12.28;86.58;98422.03;5058327;28;20022;-54
2021/12/30 15:40:44;;;;;;;34.47;12.52;;;;;;;12.34;86.55;98427.69;5067589;28;20464;-51
2021/12/30 15:43:09;;;;;;;29.13;12.55;;;;;;;12.32;86.49;98423.50;5071276;28;20032;-54
2021/12/30 15:45:35;;;;;;;38.40;15.45;;;;;;;12.23;86.93;98425.00;5055503;28;20029;-51
2021/12/30 15:48:01;;;;;;;33.80;14.57;;;;;;;12.28;86.78;98432.53;5068832;28;20031;-50
2021/12/30 15:50:26;;;;;;;39.88;16.17;;;;;;;12.32;86.67;98432.22;5054269;28;20025;-55
2021/12/30 15:53:01;;;;;;;39.53;17.48;;;;;;;12.25;86.99;98435.38;5054727;28;20029;-54
2021/12/30 15:55:26;;;;;;;55.25;24.67;;;;;;;12.29;86.58;98423.72;5057884;28;20033;-55
2021/12/30 15:57:53;;;;;;;34.05;15.43;;;;;;;12.29;86.92;98429.81;5063486;28;20495;-53
2021/12/30 16:00:19;;;;;;;28.33;12.75;;;;;;;12.26;85.92;98416.88;5075376;28;20024;-52
2021/12/30 16:02:44;;;;;;;26.60;13.38;;;;;;;12.25;86.84;98428.38;5077419;28;20029;-52
2021/12/30 16:05:10;;;;;;;35.95;18.10;;;;;;;12.20;86.83;98424.38;5064057;28;20491;-53
2021/12/30 16:07:36;;;;;;;11.95;5.40;;;;;;;12.29;86.64;98428.97;5058685;28;20026;-50
2021/12/30 16:10:03;;;;;;;11.90;5.55;;;;;;;12.26;86.47;98429.19;5067119;28;20059;-53
2021/12/30 16:12:29;;;;;;;19.08;10.25;;;;;;;12.29;86.83;98439.50;5062518;28;20029;-55
2021/12/30 16:14:55;;;;;;;14.38;6.28;;;;;;;12.26;87.02;98430.03;5067101;28;20120;-51
2021/12/30 16:17:20;;;;;;;23.58;10.63;;;;;;;12.18;87.14;98434.16;5063217;28;20150;-52
2021/12/30 16:19:45;;;;;;;17.88;8.07;;;;;;;12.21;86.91;98441.81;5060981;28;20043;-54
2021/12/30 16:22:11;;;;;;;17.52;7.80;;;;;;;12.19;87.45;98433.22;5060193;28;20039;-53
2021/12/30 16:24:36;;;;;;;37.45;17.48;;;;;;;12.16;87.25;98442.16;5063425;28;20623;-53
2021/12/30 16:27:02;;;;;;;37.20;17.08;;;;;;;12.15;87.62;98452.78;5057372;28;20027;-54
2021/12/30 16:29:27;;;;;;;19.92;9.88;;;;;;;12.12;87.22;98448.59;5044850;28;20036;-53
2021/12/30 16:31:52;;;;;;;14.02;8.00;;;;;;;12.08;86.83;98447.13;5057137;28;20388;-55
2021/12/30 16:34:18;;;;;;;19.55;12.88;;;;;;;12.13;87.12;98459.94;5072804;28;20020;-53
2021/12/30 16:36:43;;;;;;;9.05;4.32;;;;;;;12.20;86.87;98451.50;5061751;28;20120;-53
2021/12/30 16:39:09;;;;;;;16.85;8.55;;;;;;;12.19;87.22;98465.63;5062364;28;20029;-50
2021/12/30 16:41:34;;;;;;;9.15;4.30;;;;;;;12.36;85.46;98461.78;5038218;28;20082;-49
2021/12/30 16:43:59;;;;;;;8.82;5.40;;;;;;;12.27;86.39;98462.44;5037292;28;20032;-48
2021/12/30 16:46:25;;;;;;;9.48;5.18;;;;;;;12.39;85.77;98461.56;5053074;28;20025;-53
2021/12/30 16:48:51;;;;;;;7.43;3.85;;;;;;;12.29;85.49;98468.44;5054908;28;20166;-52
2021/12/30 16:51:17;;;;;;;9.52;5.45;;;;;;;12.31;85.34;98471.78;5037510;28;20057;-50
2021/12/30 16:53:43;;;;;;;9.90;5.68;;;;;;;12.32;84.86;98487.47;5034161;28;20025;-51
2021/12/30 16:56:08;;;;;;;8.88;5.03;;;;;;;12.37;84.90;98479.22;5050340;28;20041;-49
2021/12/30 16:58:34;;;;;;;3.60;1.90;;;;;;;12.29;84.92;98486.84;5054919;28;20031;-49
2021/12/30 17:01:00;;;;;;;5.68;3.10;;;;;;;12.22;85.36;98485.59;5052395;28;20025;-52
2021/12/30 17:03:26;;;;;;;6.05;3.42;;;;;;;12.13;85.40;98492.34;5054126;28;20032;-53
2021/12/30 17:05:51;;;;;;;8.43;4.60;;;;;;;12.24;84.83;98488.94;5056302;28;20024;-53
2021/12/30 17:08:19;;;;;;;6.78;3.67;;;;;;;12.47;83.98;98490.78;5054956;28;20318;-50
2021/12/30 17:10:44;;;;;;;9.10;5.00;;;;;;;12.35;84.19;98502.16;5052070;28;20125;-49
2021/12/30 17:13:10;;;;;;;9.88;5.38;;;;;;;12.31;84.39;98493.66;5058325;28;20473;-54
2021/12/30 17:15:35;;;;;;;6.28;2.90;;;;;;;12.23;84.74;98500.41;5049633;28;20535;-54
2021/12/30 17:18:01;;;;;;;11.98;6.43;;;;;;;12.17;84.68;98498.22;5044208;28;20021;-55
2021/12/30 17:20:27;;;;;;;5.10;1.80;;;;;;;12.15;84.31;98494.84;5053835;28;20111;-57
2021/12/30 17:22:52;;;;;;;7.93;3.70;;;;;;;12.19;84.48;98502.44;5057987;28;20026;-52
2021/12/30 17:25:21;;;;;;;2.88;1.33;;;;;;;12.17;83.88;98511.38;5050619;28;20053;-55
2021/12/30 17:27:50;;;;;;;12.43;6.43;;;;;;;12.23;83.66;98513.56;5037945;28;20037;-49
2021/12/30 17:30:16;;;;;;;9.55;4.60;;;;;;;12.34;83.28;98513.66;5037467;28;20419;-50
2021/12/30 17:32:41;;;;;;;21.63;11.57;;;;;;;12.32;83.05;98515.56;5055455;28;20025;-51
2021/12/30 17:35:07;;;;;;;16.52;8.60;;;;;;;12.31;83.06;98521.75;5050517;28;20037;-51
2021/12/30 17:37:32;;;;;;;6.85;3.20;;;;;;;12.33;82.85;98525.13;5036251;28;20081;-50
2021/12/30 17:39:58;;;;;;;8.73;3.40;;;;;;;12.17;82.82;98511.38;5046654;28;20037;-50
2021/12/30 17:42:23;;;;;;;3.22;1.48;;;;;;;12.22;82.76;98527.69;5052434;28;20025;-49
2021/12/30 17:44:48;;;;;;;2.15;0.90;;;;;;;12.14;82.60;98517.66;5055049;28;20040;-49
2021/12/30 17:47:14;;;;;;;1.88;0.95;;;;;;;12.27;81.92;98521.13;5053615;28;20027;-52
2021/12/30 17:49:40;;;;;;;3.00;1.48;;;;;;;12.21;82.26;98523.34;5043982;28;20473;-49
2021/12/30 17:52:07;;;;;;;3.42;1.20;;;;;;;12.20;82.58;98526.94;5035041;28;20507;-50
2021/12/30 17:54:35;;;;;;;4.45;2.05;;;;;;;12.16;82.75;98528.09;5038957;28;20033;-54
2021/12/30 17:57:00;;;;;;;3.33;1.40;;;;;;;12.21;82.29;98523.34;5055099;28;20064;-51
2021/12/30 17:59:25;;;;;;;3.80;1.45;;;;;;;12.01;82.62;98515.06;5050509;28;20026;-50
2021/12/30 18:01:51;;;;;;;3.03;1.20;;;;;;;12.02;83.07;98527.25;5036240;28;20377;-53
2021/12/30 18:04:16;;;;;;;3.25;1.05;;;;;;;12.05;83.17;98528.84;5036493;28;20021;-51
2021/12/30 18:06:42;;;;;;;2.35;1.00;;;;;;;11.95;83.69;98533.91;5044235;28;20036;-50
2021/12/30 18:09:07;;;;;;;2.85;1.10;;;;;;;11.97;83.03;98542.50;5053381;28;20420;-53
2021/12/30 18:11:34;;;;;;;3.10;0.98;;;;;;;11.97;83.42;98534.63;5047873;28;20037;-50
2021/12/30 18:14:01;;;;;;;6.72;2.05;;;;;;;11.97;83.41;98539.88;5043330;28;20028;-49
2021/12/30 18:16:27;;;;;;;3.38;1.58;;;;;;;12.13;82.64;98541.47;5047240;28;20021;-47
2021/12/30 18:18:52;;;;;;;4.03;1.20;;;;;;;12.07;82.52;98546.19;5045333;28;20609;-52
2021/12/30 18:21:18;;;;;;;3.53;1.60;;;;;;;12.01;83.39;98551.88;5036012;28;20055;-47
2021/12/30 18:23:43;;;;;;;3.53;1.20;;;;;;;12.05;82.71;98558.59;5048123;28;20044;-52
2021/12/30 18:26:09;;;;;;;4.55;1.23;;;;;;;11.88;84.05;98553.66;5050146;28;20388;-51
2021/12/30 18:28:34;;;;;;;4.72;1.60;;;;;;;11.87;84.12;98554.59;5054053;28;20071;-50
2021/12/30 18:31:02;;;;;;;6.22;2.35;;;;;;;11.88;83.67;98558.91;5053245;28;20033;-52
2021/12/30 18:33:27;;;;;;;11.05;5.70;;;;;;;11.83;83.29;98558.34;5054008;28;20021;-54
2021/12/30 18:35:53;;;;;;;6.47;3.00;;;;;;;11.89;83.21;98555.34;5052700;28;20067;-53
2021/12/30 18:38:18;;;;;;;7.30;3.22;;;;;;;11.91;83.00;98558.72;5053832;28;20029;-50
2021/12/30 18:40:44;;;;;;;10.75;5.25;;;;;;;11.77;83.65;98558.78;5055108;28;20037;-50
2021/12/30 18:43:09;;;;;;;11.00;4.80;;;;;;;11.78;82.93;98565.72;5039638;28;20022;-53
2021/12/30 18:45:35;;;;;;;5.72;2.10;;;;;;;11.93;82.21;98564.69;5040924;28;20067;-52
2021/12/30 18:48:03;;;;;;;8.65;4.20;;;;;;;11.91;82.45;98571.84;5053383;28;20070;-49
2021/12/30 18:50:28;;;;;;;8.55;4.22;;;;;;;11.88;82.16;98567.66;5047155;28;20110;-50
2021/12/30 18:52:54;;;;;;;4.93;1.90;;;;;;;11.84;82.86;98565.34;5053808;28;20482;-50
2021/12/30 18:55:20;;;;;;;6.78;2.08;;;;;;;11.95;81.97;98573.31;5053337;28;20021;-51
2021/12/30 18:57:46;;;;;;;6.25;2.90;;;;;;;11.93;82.01;98580.47;5050421;28;20020;-47
2021/12/30 19:00:17;;;;;;;8.18;3.60;;;;;;;11.99;82.39;98585.31;5045325;28;20040;-49
2021/12/30 19:02:43;;;;;;;6.85;2.50;;;;;;;12.05;81.09;98590.16;5051775;28;20761;-51
2021/12/30 19:05:09;;;;;;;6.22;2.75;;;;;;;11.94;81.81;98592.69;5034120;28;20048;-50
2021/12/30 19:07:35;;;;;;;4.97;2.50;;;;;;;12.08;81.13;98603.09;5051099;28;20029;-49
2021/12/30 19:10:00;;;;;;;8.48;4.28;;;;;;;12.30;81.65;98602.44;5038667;28;20029;-49
2021/12/30 19:12:26;;;;;;;6.40;2.63;;;;;;;11.82;83.09;98602.19;5033829;28;20033;-51
2021/12/30 19:14:53;;;;;;;7.53;3.40;;;;;;;11.85;83.24;98596.75;5033998;28;20033;-52
2021/12/30 19:17:18;;;;;;;5.28;2.30;;;;;;;11.56;83.85;98601.31;5038552;28;20020;-50
2021/12/30 19:19:43;;;;;;;7.72;3.05;;;;;;;11.46;83.92;98605.50;5043330;28;20029;-48
2021/12/30 19:22:09;;;;;;;9.00;3.72;;;;;;;11.53;84.43;98598.06;5034598;28;20029;-52
2021/12/30 19:24:34;;;;;;;7.95;2.50;;;;;;;11.46;84.40;98600.25;5055095;28;20036;-53
2021/12/30 19:27:00;;;;;;;6.68;2.70;;;;;;;11.50;83.58;98599.09;5043753;28;20043;-49
2021/12/30 19:29:25;;;;;;;9.45;3.65;;;;;;;11.49;84.27;98597.38;5035834;28;20489;-49
2021/12/30 19:31:50;;;;;;;9.50;4.97;;;;;;;11.46;83.98;98605.50;5035933;28;20025;-51
2021/12/30 19:34:16;;;;;;;7.43;3.65;;;;;;;11.54;83.71;98610.22;5035514;28;20030;-50
2021/12/30 19:36:41;;;;;;;4.07;1.70;;;;;;;11.54;83.33;98600.56;5036658;28;20040;-51
2021/12/30 19:39:08;;;;;;;4.63;1.80;;;;;;;11.51;83.50;98608.66;5048555;28;20058;-53
2021/12/30 19:41:33;;;;;;;5.50;1.73;;;;;;;11.57;83.41;98605.63;5055154;28;20078;-53
2021/12/30 19:43:58;;;;;;;4.68;1.85;;;;;;;11.49;83.14;98605.25;5038955;28;20021;-49
2021/12/30 19:46:31;;;;;;;4.97;1.90;;;;;;;11.44;83.47;98603.91;5045782;28;20111;-48
2021/12/30 19:48:56;;;;;;;23.20;9.68;;;;;;;11.55;83.65;98612.75;5052191;28;20482;-49
2021/12/30 19:51:22;;;;;;;37.13;21.70;;;;;;;11.67;82.36;98615.53;5058461;28;20082;-49
2021/12/30 19:53:48;;;;;;;39.55;35.75;;;;;;;11.67;82.67;98615.53;5045414;28;20017;-48
2021/12/30 19:56:14;;;;;;;14.60;13.05;;;;;;;11.62;83.07;98627.16;5038631;28;20247;-48
2021/12/30 19:58:40;;;;;;;17.10;15.40;;;;;;;11.69;82.27;98621.50;5048389;28;20021;-51
2021/12/30 20:01:05;;;;;;;21.25;19.23;;;;;;;11.57;82.66;98621.38;5046486;28;20040;-50
2021/12/30 20:03:31;;;;;;;6.72;3.70;;;;;;;11.58;82.19;98623.06;5047771;28;20025;-48
2021/12/30 20:05:56;;;;;;;10.60;7.55;;;;;;;11.72;81.89;98614.25;5037601;28;20030;-51
2021/12/30 20:08:22;;;;;;;5.60;2.63;;;;;;;11.74;81.24;98620.25;5048689;28;20037;-48
2021/12/30 20:10:47;;;;;;;7.47;3.30;;;;;;;11.56;82.10;98626.72;5057248;28;20027;-48
2021/12/30 20:13:15;;;;;;;9.75;5.13;;;;;;;11.57;82.02;98624.00;5055800;28;20438;-48
2021/12/30 20:15:41;;;;;;;8.48;4.40;;;;;;;11.64;81.94;98630.53;5042511;28;20025;-48
2021/12/30 20:18:06;;;;;;;10.68;5.97;;;;;;;11.87;80.82;98625.56;5044816;28;20090;-48
2021/12/30 20:20:32;;;;;;;8.93;4.60;;;;;;;11.66;82.14;98640.94;5055956;28;20041;-48
2021/12/30 20:22:58;;;;;;;11.35;5.80;;;;;;;11.54;82.65;98632.09;5055508;28;20027;-51
2021/12/30 20:25:26;;;;;;;10.57;6.40;;;;;;;11.70;82.09;98636.31;5054648;28;20037;-50
2021/12/30 20:27:51;;;;;;;28.58;15.43;;;;;;;11.61;82.79;98633.38;5039666;28;20021;-48
2021/12/30 20:30:21;;;;;;;17.13;8.93;;;;;;;11.52;83.39;98631.34;5049350;28;20396;-50
2021/12/30 20:32:49;;;;;;;24.30;13.45;;;;;;;11.64;82.60;98638.41;5037781;28;20099;-48
2021/12/30 20:35:15;;;;;;;11.80;8.00;;;;;;;11.70;82.31;98631.06;5039285;28;20033;-48
2021/12/30 20:37:41;;;;;;;11.45;5.82;;;;;;;11.71;82.16;98632.78;5036995;28;20369;-50
2021/12/30 20:40:08;;;;;;;24.25;13.15;;;;;;;11.52;82.98;98626.09;5039234;28;20362;-53
2021/12/30 20:42:34;;;;;;;15.80;9.35;;;;;;;11.46;83.62;98623.88;5047057;28;20021;-48
2021/12/30 20:45:00;;;;;;;42.40;25.65;;;;;;;11.50;83.35;98635.88;5047036;28;20052;-49
2021/12/30 20:47:25;;;;;;;28.40;13.45;;;;;;;11.44;83.46;98633.63;5037497;28;20459;-50
2021/12/30 20:49:50;;;;;;;18.77;11.25;;;;;;;11.50;83.68;98640.28;5045268;28;20044;-51
2021/12/30 20:52:16;;;;;;;15.68;9.43;;;;;;;11.50;82.67;98641.13;5057659;28;20025;-48
2021/12/30 20:54:41;;;;;;;19.75;8.63;;;;;;;11.43;83.87;98644.25;5054881;28;20032;-54
2021/12/30 20:57:06;;;;;;;11.55;6.03;;;;;;;11.51;82.85;98639.34;5046616;28;20428;-51
2021/12/30 20:59:32;;;;;;;8.18;3.45;;;;;;;11.45;83.26;98637.09;5036820;28;20033;-50
2021/12/30 21:01:57;;;;;;;13.07;5.43;;;;;;;11.40;83.81;98638.25;5037930;28;20029;-51
2021/12/30 21:04:23;;;;;;;26.67;12.75;;;;;;;11.36;83.66;98633.31;5036911;28;20026;-49
2021/12/30 21:06:51;;;;;;;10.30;5.60;;;;;;;11.64;82.79;98637.59;5037335;28;20029;-48
2021/12/30 21:09:17;;;;;;;17.10;7.45;;;;;;;11.30;84.03;98631.06;5035883;28;20041;-48
2021/12/30 21:11:42;;;;;;;23.33;8.25;;;;;;;11.35;83.60;98642.94;5049765;28;20138;-48
2021/12/30 21:14:07;;;;;;;10.75;4.03;;;;;;;11.35;83.96;98642.94;5050413;28;20044;-50
2021/12/30 21:16:33;;;;;;;16.38;6.28;;;;;;;11.36;83.59;98651.69;5053113;28;20028;-49
2021/12/30 21:18:58;;;;;;;27.00;9.52;;;;;;;11.30;84.21;98645.03;5056422;28;20481;-48
2021/12/30 21:21:25;;;;;;;31.30;12.20;;;;;;;11.20;84.49;98651.81;5055522;28;20037;-49
2021/12/30 21:23:54;;;;;;;12.50;3.97;;;;;;;11.26;83.79;98642.72;5041128;28;20018;-50
2021/12/30 21:26:20;;;;;;;16.23;5.63;;;;;;;11.27;84.40;98655.72;5051712;28;20025;-49
2021/12/30 21:28:46;;;;;;;18.88;7.05;;;;;;;11.27;83.71;98650.47;5057140;28;20047;-49
2021/12/30 21:31:11;;;;;;;13.98;5.35;;;;;;;11.29;84.08;98656.50;5053048;28;20031;-51
2021/12/30 21:33:37;;;;;;;11.25;4.80;;;;;;;11.26;84.15;98653.22;5055350;28;20100;-51
2021/12/30 21:36:02;;;;;;;10.63;3.53;;;;;;;11.25;83.78;98657.63;5056340;28;20037;-49
2021/12/30 21:38:29;;;;;;;14.43;5.65;;;;;;;11.17;84.69;98655.47;5045510;28;20021;-52
2021/12/30 21:40:55;;;;;;;11.82;4.88;;;;;;;11.21;84.64;98656.13;5057930;28;20112;-47
2021/12/30 21:43:21;;;;;;;20.23;8.57;;;;;;;11.16;84.70;98659.03;5045485;28;20033;-49
2021/12/30 21:45:47;;;;;;;26.70;10.60;;;;;;;11.18;84.76;98656.31;5054203;28;20020;-50
2021/12/30 21:48:12;;;;;;;14.40;7.43;;;;;;;11.22;84.24;98652.56;5054439;28;20040;-51
2021/12/30 21:50:38;;;;;;;19.25;11.15;;;;;;;11.16;84.24;98661.66;5056566;28;20021;-51
2021/12/30 21:53:04;;;;;;;9.95;5.40;;;;;;;11.23;84.38;98669.16;5058380;28;20054;-47
2021/12/30 21:55:31;;;;;;;8.70;3.67;;;;;;;11.25;83.40;98665.50;5057029;28;20057;-45
2021/12/30 21:57:57;;;;;;;9.45;4.00;;;;;;;11.25;84.40;98667.25;5053794;28;20028;-49
2021/12/30 22:00:22;;;;;;;6.80;3.30;;;;;;;11.20;84.19;98666.72;5053699;28;20623;-49
2021/12/30 22:02:48;;;;;;;23.00;9.70;;;;;;;11.17;84.66;98673.84;5038463;28;20025;-49
2021/12/30 22:05:14;;;;;;;12.63;3.95;;;;;;;11.23;84.29;98674.41;5038007;28;20032;-47
2021/12/30 22:07:40;;;;;;;22.70;8.98;;;;;;;11.23;84.36;98675.25;5053512;28;20032;-46
2021/12/30 22:10:06;;;;;;;18.70;7.32;;;;;;;11.25;84.37;98683.03;5058070;28;20029;-50
